Terminal Aerodrome Forecast
Issued by NWS

Home | Current Version | Previous Version | Text Only | Print | Product List | Glossary On
Versions: 1 2 3 4 5 6 7 8 9 10 11 12 13 14 15 16 17 18 19 20 21 22 23 24 25 26 27 28 29 30 31 32 33 34 35 36 37 38 39 40 41 42 43 44 45 46 47 48 49 50
642
FTUS41 KCTP 040540
TAFAOO
TAF
KAOO 040540Z 0406/0506 27006KT P6SM BKN050
     FM040900 VRB03KT 4SM BR OVC025
     FM041100 VRB03KT 1SM BR OVC007
     FM041500 VRB03KT P6SM SCT025 OVC035
     FM050500 05005KT 5SM -SHRA BR OVC030=

USA.gov is the U.S. government's official web portal to all federal, state and local government web resources and services.